createdAt,value
2022-10-17T00:02:10.299Z,10.66
2022-10-17T00:04:37.009Z,10.08
2022-10-17T00:07:03.701Z,10.57
2022-10-17T00:09:30.442Z,10.70
2022-10-17T00:11:57.125Z,10.61
2022-10-17T00:14:23.745Z,10.51
2022-10-17T00:16:50.367Z,10.32
2022-10-17T00:19:17.025Z,10.14
2022-10-17T00:21:43.673Z,10.44
2022-10-17T00:24:10.312Z,10.50
2022-10-17T00:26:36.962Z,10.45
2022-10-17T00:29:03.710Z,10.18
2022-10-17T00:31:30.652Z,10.22
2022-10-17T00:33:57.322Z,10.43
2022-10-17T00:36:26.544Z,10.52
2022-10-17T00:38:58.992Z,10.45
2022-10-17T00:41:30.150Z,10.20
2022-10-17T00:44:02.844Z,10.45
2022-10-17T00:46:35.523Z,10.35
2022-10-17T00:49:08.366Z,10.39
2022-10-17T00:51:42.614Z,10.40
2022-10-17T00:54:11.403Z,10.23
2022-10-17T00:56:40.412Z,9.98
2022-10-17T00:59:12.322Z,10.26
2022-10-17T01:01:47.121Z,10.29
2022-10-17T01:04:13.882Z,9.90
2022-10-17T01:06:40.446Z,9.87
2022-10-17T01:09:07.040Z,9.96
2022-10-17T01:11:56.982Z,9.95
2022-10-17T01:14:37.910Z,9.96
2022-10-17T01:17:11.487Z,9.98
2022-10-17T01:20:07.430Z,10.16
2022-10-17T01:23:04.463Z,10.12
2022-10-17T01:25:52.513Z,10.10
2022-10-17T01:28:37.476Z,10.02
2022-10-17T01:31:16.382Z,9.97
2022-10-17T01:33:45.985Z,9.97
2022-10-17T01:36:21.387Z,9.90
2022-10-17T01:38:58.989Z,9.95
2022-10-17T01:41:42.432Z,9.73
2022-10-17T01:44:18.139Z,9.82
2022-10-17T01:46:50.477Z,9.72
2022-10-17T01:49:21.837Z,9.83
2022-10-17T01:51:54.389Z,9.62
2022-10-17T01:54:36.737Z,9.79
2022-10-17T01:57:08.631Z,9.51
2022-10-17T01:59:41.004Z,9.66
2022-10-17T02:02:09.964Z,9.24
2022-10-17T02:04:37.602Z,9.23
2022-10-17T02:07:13.034Z,9.58
2022-10-17T02:09:40.615Z,9.54
2022-10-17T02:12:16.277Z,9.56
2022-10-17T02:14:55.281Z,9.52
2022-10-17T02:17:45.113Z,9.30
2022-10-17T02:20:22.774Z,9.30
2022-10-17T02:23:07.575Z,9.51
2022-10-17T02:25:41.562Z,9.35
2022-10-17T02:28:16.991Z,9.42
2022-10-17T02:30:51.873Z,9.33
2022-10-17T02:33:25.352Z,9.25
2022-10-17T02:36:03.160Z,9.03
2022-10-17T02:38:31.659Z,9.14
2022-10-17T02:40:59.124Z,9.21
2022-10-17T02:43:26.027Z,9.05
2022-10-17T02:45:52.874Z,9.25
2022-10-17T02:48:30.916Z,9.27
2022-10-17T02:51:09.738Z,9.26
2022-10-17T02:53:48.996Z,8.89
2022-10-17T02:56:21.631Z,7.99
2022-10-17T02:58:52.526Z,9.31
2022-10-17T03:01:19.804Z,8.97
2022-10-17T03:03:46.739Z,8.99
2022-10-17T03:06:13.523Z,8.76
2022-10-17T03:08:40.133Z,8.56
2022-10-17T03:11:07.026Z,8.33
2022-10-17T03:13:36.239Z,8.77
2022-10-17T03:16:06.337Z,8.19
2022-10-17T03:18:33.057Z,8.74
2022-10-17T03:21:01.196Z,8.54
2022-10-17T03:23:28.226Z,8.86
2022-10-17T03:25:55.309Z,8.67
2022-10-17T03:28:22.193Z,8.86
2022-10-17T03:30:48.958Z,8.67
2022-10-17T03:33:15.889Z,8.52
2022-10-17T03:35:42.727Z,8.49
2022-10-17T03:38:09.824Z,8.10
2022-10-17T03:40:36.868Z,8.61
2022-10-17T03:43:03.970Z,8.63
2022-10-17T03:45:30.656Z,8.43
2022-10-17T03:47:59.049Z,8.50
2022-10-17T03:50:26.047Z,8.49
2022-10-17T03:52:52.930Z,8.79
2022-10-17T03:55:19.524Z,8.68
2022-10-17T03:57:46.168Z,8.55
2022-10-17T04:00:14.966Z,8.49
2022-10-17T04:02:41.684Z,8.61
2022-10-17T04:05:12.596Z,8.32
2022-10-17T04:07:39.252Z,8.65
2022-10-17T04:10:07.148Z,8.36
2022-10-17T04:12:33.794Z,8.52
2022-10-17T04:15:00.478Z,8.46
2022-10-17T04:17:31.545Z,7.98
2022-10-17T04:20:01.489Z,7.92
2022-10-17T04:22:28.480Z,8.36
2022-10-17T04:24:55.275Z,8.33
2022-10-17T04:27:31.019Z,8.49
2022-10-17T04:29:58.113Z,8.30
2022-10-17T04:32:25.949Z,8.10
2022-10-17T04:35:15.465Z,8.25
2022-10-17T04:37:47.673Z,8.32
2022-10-17T04:40:17.954Z,7.83
2022-10-17T04:42:45.053Z,7.76
2022-10-17T04:45:14.825Z,8.34
2022-10-17T04:47:42.144Z,8.35
2022-10-17T04:50:09.238Z,7.76
2022-10-17T04:52:39.060Z,7.94
2022-10-17T04:55:07.932Z,8.10
2022-10-17T04:57:35.929Z,8.04
2022-10-17T05:00:15.535Z,8.01
2022-10-17T05:03:01.278Z,7.77
2022-10-17T05:05:29.210Z,7.95
2022-10-17T05:07:56.591Z,7.85
2022-10-17T05:10:26.428Z,7.81
2022-10-17T05:12:54.156Z,8.10
2022-10-17T05:15:23.565Z,8.08
2022-10-17T05:17:55.396Z,7.96
2022-10-17T05:20:22.814Z,7.97
2022-10-17T05:22:49.714Z,8.05
2022-10-17T05:25:17.811Z,7.79
2022-10-17T05:27:44.459Z,7.56
2022-10-17T05:30:11.479Z,7.57
2022-10-17T05:32:39.574Z,7.66
2022-10-17T05:35:07.604Z,7.71
2022-10-17T05:37:35.737Z,7.56
2022-10-17T05:40:03.726Z,7.54
2022-10-17T05:42:30.947Z,7.53
2022-10-17T05:44:58.465Z,7.75
2022-10-17T05:47:26.098Z,7.88
2022-10-17T05:49:52.794Z,7.77
2022-10-17T05:52:26.060Z,7.82
2022-10-17T05:55:10.251Z,7.73
2022-10-17T05:57:36.949Z,6.64
2022-10-17T06:00:07.183Z,7.77
2022-10-17T06:02:46.074Z,7.65
2022-10-17T06:05:15.109Z,7.77
2022-10-17T06:07:41.717Z,7.86
2022-10-17T06:10:09.209Z,7.61
2022-10-17T06:12:36.069Z,7.93
2022-10-17T06:15:02.810Z,7.97
2022-10-17T06:17:30.342Z,7.41
2022-10-17T06:19:57.818Z,7.46
2022-10-17T06:22:24.692Z,7.78
2022-10-17T06:24:53.080Z,8.01
2022-10-17T06:27:20.767Z,7.80
2022-10-17T06:29:47.938Z,7.77
2022-10-17T06:32:15.290Z,8.09
2022-10-17T06:34:45.355Z,8.04
2022-10-17T06:37:12.023Z,8.15
2022-10-17T06:39:40.383Z,7.80
2022-10-17T06:42:11.952Z,7.98
2022-10-17T06:44:55.174Z,8.17
2022-10-17T06:47:21.815Z,8.36
2022-10-17T06:49:49.889Z,7.61
2022-10-17T06:52:31.468Z,8.31
2022-10-17T06:55:21.478Z,8.56
2022-10-17T06:58:12.779Z,8.39
2022-10-17T07:01:05.088Z,8.82
2022-10-17T07:03:32.387Z,8.65
2022-10-17T07:06:00.521Z,8.59
2022-10-17T07:08:27.761Z,8.93
2022-10-17T07:10:54.951Z,9.06
2022-10-17T07:13:22.039Z,8.87
2022-10-17T07:15:48.753Z,8.97
2022-10-17T07:18:16.697Z,8.66
2022-10-17T07:20:43.980Z,9.25
2022-10-17T07:23:11.051Z,9.16
2022-10-17T07:25:40.143Z,9.39
2022-10-17T07:28:08.799Z,9.65
2022-10-17T07:30:35.628Z,9.60
2022-10-17T07:33:07.651Z,9.67
2022-10-17T07:35:34.661Z,10.11
2022-10-17T07:38:01.651Z,9.98
2022-10-17T07:40:28.418Z,10.31
2022-10-17T07:42:56.397Z,10.14
2022-10-17T07:45:28.004Z,10.29
2022-10-17T07:47:58.416Z,10.62
2022-10-17T07:50:25.551Z,10.49
2022-10-17T07:52:52.163Z,10.70
2022-10-17T07:55:18.870Z,10.50
2022-10-17T07:57:45.616Z,10.86
2022-10-17T08:00:12.762Z,10.98
2022-10-17T08:02:39.605Z,11.29
2022-10-17T08:05:06.706Z,11.16
2022-10-17T08:07:33.370Z,11.19
2022-10-17T08:10:00.066Z,11.53
2022-10-17T08:12:26.944Z,11.29
2022-10-17T08:14:53.709Z,11.77
2022-10-17T08:17:20.293Z,12.26
2022-10-17T08:19:46.933Z,12.20
2022-10-17T08:22:13.498Z,11.91
2022-10-17T08:24:40.112Z,12.19
2022-10-17T08:27:11.500Z,11.98
2022-10-17T08:29:39.506Z,12.27
2022-10-17T08:32:09.649Z,12.43
2022-10-17T08:34:36.529Z,13.00
2022-10-17T08:37:03.243Z,12.85
2022-10-17T08:39:29.823Z,12.96
2022-10-17T08:42:05.731Z,13.38
2022-10-17T08:45:18.799Z,13.44
2022-10-17T08:47:48.700Z,13.45
2022-10-17T08:50:29.466Z,13.51
2022-10-17T08:53:03.056Z,13.86
2022-10-17T08:55:34.580Z,14.04
2022-10-17T08:58:01.755Z,14.00
2022-10-17T09:00:31.241Z,13.55
2022-10-17T09:02:57.855Z,14.10
2022-10-17T09:05:42.161Z,13.96
2022-10-17T09:08:14.766Z,14.32
2022-10-17T09:10:57.933Z,14.34
2022-10-17T09:16:11.465Z,14.89
2022-10-17T09:18:57.815Z,14.87
2022-10-17T09:21:36.531Z,14.75
2022-10-17T09:24:15.393Z,15.24
2022-10-17T09:26:45.740Z,15.03
2022-10-17T09:29:40.212Z,15.14
2022-10-17T09:32:18.272Z,15.26
2022-10-17T09:34:44.951Z,15.09
2022-10-17T09:37:15.310Z,15.20
2022-10-17T09:39:43.525Z,15.34
2022-10-17T09:42:14.436Z,15.13
2022-10-17T09:45:04.698Z,15.45
2022-10-17T09:47:43.449Z,15.51
2022-10-17T09:50:22.821Z,15.19
2022-10-17T09:52:50.760Z,15.31
2022-10-17T09:55:21.090Z,15.81
2022-10-17T09:57:56.776Z,15.81
2022-10-17T10:00:29.927Z,15.74
2022-10-17T10:03:22.903Z,16.02
2022-10-17T10:06:11.559Z,16.18
2022-10-17T10:08:51.321Z,16.33
2022-10-17T10:11:19.885Z,16.31
2022-10-17T10:13:50.073Z,16.28
2022-10-17T10:16:16.760Z,16.44
2022-10-17T10:18:45.487Z,16.18
2022-10-17T10:21:17.211Z,16.34
2022-10-17T10:23:45.836Z,16.72
2022-10-17T10:26:22.231Z,16.66
2022-10-17T10:29:05.032Z,17.11
2022-10-17T10:31:35.729Z,17.19
2022-10-17T10:34:25.215Z,17.18
2022-10-17T10:36:51.746Z,17.49
2022-10-17T10:39:46.017Z,17.65
2022-10-17T10:42:39.435Z,17.63
2022-10-17T10:45:29.454Z,17.62
2022-10-17T10:48:20.836Z,17.04
2022-10-17T10:50:56.008Z,17.82
2022-10-17T10:53:47.366Z,17.99
2022-10-17T10:56:21.333Z,17.92
2022-10-17T10:58:47.885Z,17.82
2022-10-17T11:01:37.409Z,17.98
2022-10-17T11:04:13.118Z,18.33
2022-10-17T11:06:43.167Z,18.65
2022-10-17T11:09:45.078Z,18.77
2022-10-17T11:12:25.617Z,18.55
2022-10-17T11:15:03.230Z,18.59
2022-10-17T11:17:45.800Z,18.57
2022-10-17T11:20:20.898Z,18.47
2022-10-17T11:22:52.235Z,18.53
2022-10-17T11:25:40.421Z,18.39
2022-10-17T11:28:16.764Z,18.86
2022-10-17T11:30:52.424Z,18.95
2022-10-17T11:33:41.922Z,18.56
2022-10-17T11:36:10.325Z,18.77
2022-10-17T11:38:42.937Z,19.01
2022-10-17T11:41:15.525Z,19.13
2022-10-17T11:44:12.068Z,19.17
2022-10-17T11:46:41.686Z,19.35
2022-10-17T11:49:21.027Z,19.78
2022-10-17T11:52:37.344Z,19.89
2022-10-17T11:55:16.300Z,20.20
2022-10-17T11:58:14.029Z,20.93
2022-10-17T12:00:50.068Z,21.50
2022-10-17T12:03:22.924Z,21.96
2022-10-17T12:05:52.591Z,21.84
2022-10-17T12:08:44.127Z,21.69
2022-10-17T12:11:34.743Z,22.22
2022-10-17T12:14:05.758Z,22.72
2022-10-17T12:16:38.242Z,22.96
2022-10-17T12:19:10.924Z,23.06
2022-10-17T12:21:57.332Z,22.67
2022-10-17T12:24:44.048Z,23.00
2022-10-17T12:27:46.140Z,23.18
2022-10-17T12:30:13.437Z,23.84
2022-10-17T12:33:06.753Z,23.15
2022-10-17T12:35:36.734Z,23.19
2022-10-17T12:38:20.099Z,23.21
2022-10-17T12:40:49.959Z,23.55
2022-10-17T12:43:16.556Z,24.16
2022-10-17T12:45:49.267Z,23.60
2022-10-17T12:48:34.059Z,23.46
2022-10-17T12:51:35.793Z,23.06
2022-10-17T12:54:14.893Z,23.00
2022-10-17T12:56:47.303Z,22.79
2022-10-17T12:59:24.828Z,23.09
2022-10-17T13:02:03.443Z,23.23
2022-10-17T13:04:31.839Z,23.27
2022-10-17T13:07:01.033Z,23.59
2022-10-17T13:09:31.195Z,23.73
2022-10-17T13:12:00.459Z,24.08
2022-10-17T13:14:28.436Z,23.89
2022-10-17T13:16:58.395Z,24.25
2022-10-17T13:19:30.007Z,23.66
2022-10-17T13:22:06.829Z,24.29
2022-10-17T13:24:39.371Z,23.97
2022-10-17T13:27:24.360Z,24.15
2022-10-17T13:29:50.991Z,24.37
2022-10-17T13:32:17.669Z,24.69
2022-10-17T13:34:44.220Z,24.84
2022-10-17T13:37:15.407Z,24.67
2022-10-17T13:39:54.854Z,25.18
2022-10-17T13:42:30.978Z,25.60
2022-10-17T13:44:59.161Z,25.61
2022-10-17T13:47:28.445Z,25.90
2022-10-17T13:49:56.504Z,26.14
2022-10-17T13:52:29.950Z,26.20
2022-10-17T13:55:08.489Z,26.15
2022-10-17T13:57:35.245Z,25.82
2022-10-17T14:00:10.041Z,25.94
2022-10-17T14:02:41.861Z,25.64
2022-10-17T14:05:17.174Z,25.76
2022-10-17T14:08:15.233Z,25.46
2022-10-17T14:10:44.735Z,24.97
2022-10-17T14:13:20.466Z,25.22
2022-10-17T14:15:47.293Z,25.19
2022-10-17T14:18:20.967Z,25.21
2022-10-17T14:23:43.695Z,25.01
2022-10-17T14:26:12.789Z,25.53
2022-10-17T14:28:40.795Z,25.24
2022-10-17T14:31:22.148Z,25.91
2022-10-17T14:33:51.405Z,25.68
2022-10-17T14:36:20.255Z,25.81
2022-10-17T14:38:50.096Z,26.03
2022-10-17T14:41:44.860Z,25.66
2022-10-17T14:44:21.833Z,26.15
2022-10-17T14:46:53.225Z,26.27
2022-10-17T14:49:40.752Z,25.56
2022-10-17T14:52:29.224Z,25.91
2022-10-17T14:54:57.283Z,26.07
2022-10-17T14:57:44.238Z,26.19
2022-10-17T15:00:16.327Z,26.24
2022-10-17T15:02:43.973Z,25.97
2022-10-17T15:05:13.177Z,25.01
2022-10-17T15:07:41.505Z,24.23
2022-10-17T15:10:23.671Z,23.53
2022-10-17T15:12:58.834Z,23.00
2022-10-17T15:15:28.606Z,22.56
2022-10-17T15:17:55.375Z,22.11
2022-10-17T15:20:26.187Z,21.99
2022-10-17T15:22:54.719Z,22.23
2022-10-17T15:25:21.737Z,21.29
2022-10-17T15:27:48.438Z,21.19
2022-10-17T15:30:23.418Z,21.07
2022-10-17T15:32:50.863Z,20.80
2022-10-17T15:35:17.667Z,20.76
2022-10-17T15:37:46.616Z,20.50
2022-10-17T15:40:15.935Z,19.93
2022-10-17T15:42:42.914Z,20.17
2022-10-17T15:45:15.784Z,19.84
2022-10-17T15:47:46.543Z,19.99
2022-10-17T15:50:17.396Z,19.94
2022-10-17T15:52:44.326Z,19.77
2022-10-17T15:55:11.173Z,19.71
2022-10-17T15:57:42.640Z,19.78
2022-10-17T16:00:21.589Z,19.30
2022-10-17T16:02:49.478Z,19.41
2022-10-17T16:05:26.033Z,18.83
2022-10-17T16:07:53.630Z,18.96
2022-10-17T16:10:21.623Z,19.00
2022-10-17T16:12:49.986Z,18.85
2022-10-17T16:15:22.991Z,18.30
2022-10-17T16:17:50.688Z,18.20
2022-10-17T16:20:17.976Z,17.98
2022-10-17T16:22:45.130Z,17.80
2022-10-17T16:25:19.974Z,17.98
2022-10-17T16:27:48.133Z,17.77
2022-10-17T16:30:15.744Z,17.88
2022-10-17T16:32:42.465Z,17.72
2022-10-17T16:35:11.753Z,17.70
2022-10-17T16:37:38.581Z,17.39
2022-10-17T16:40:05.789Z,17.40
2022-10-17T16:42:32.813Z,17.38
2022-10-17T16:44:59.878Z,17.29
2022-10-17T16:47:26.664Z,17.02
2022-10-17T16:49:53.417Z,16.89
2022-10-17T16:52:20.109Z,16.53
2022-10-17T16:54:46.852Z,16.18
2022-10-17T16:57:13.452Z,16.51
2022-10-17T16:59:40.112Z,16.46
2022-10-17T17:02:07.160Z,16.41
2022-10-17T17:04:33.760Z,16.36
2022-10-17T17:07:00.393Z,16.14
2022-10-17T17:09:27.049Z,16.23
2022-10-17T17:11:53.704Z,15.82
2022-10-17T17:14:20.319Z,15.90
2022-10-17T17:16:49.945Z,15.84
2022-10-17T17:19:20.431Z,15.76
2022-10-17T17:21:53.167Z,15.89
2022-10-17T17:24:21.540Z,15.87
2022-10-17T17:26:53.343Z,15.83
2022-10-17T17:29:20.562Z,15.65
2022-10-17T17:31:47.364Z,15.28
2022-10-17T17:34:17.971Z,15.39
2022-10-17T17:36:45.358Z,15.43
2022-10-17T17:39:14.255Z,15.19
2022-10-17T17:41:41.516Z,15.12
2022-10-17T17:44:12.562Z,15.07
2022-10-17T17:46:43.660Z,15.20
2022-10-17T17:49:11.634Z,15.31
2022-10-17T17:51:38.774Z,15.21
2022-10-17T17:54:05.423Z,15.14
2022-10-17T17:56:32.268Z,15.30
2022-10-17T17:59:01.124Z,15.14
2022-10-17T18:01:30.974Z,15.01
2022-10-17T18:03:59.035Z,15.00
2022-10-17T18:06:26.516Z,14.98
2022-10-17T18:08:57.859Z,14.93
2022-10-17T18:11:25.805Z,14.78
2022-10-17T18:14:01.104Z,14.55
2022-10-17T18:16:29.168Z,14.07
2022-10-17T18:18:55.953Z,13.72
2022-10-17T18:21:23.413Z,13.96
2022-10-17T18:23:51.848Z,13.94
2022-10-17T18:26:19.191Z,14.00
2022-10-17T18:28:46.366Z,13.99
2022-10-17T18:31:15.578Z,13.97
2022-10-17T18:33:44.560Z,13.46
2022-10-17T18:36:13.527Z,13.68
2022-10-17T18:38:40.401Z,13.51
2022-10-17T18:41:10.252Z,13.69
2022-10-17T18:43:38.804Z,13.63
2022-10-17T18:46:12.268Z,13.41
2022-10-17T18:48:44.721Z,13.52
2022-10-17T18:51:12.106Z,13.32
2022-10-17T18:53:40.930Z,13.11
2022-10-17T18:56:08.129Z,13.30
2022-10-17T18:58:34.853Z,13.22
2022-10-17T19:01:03.671Z,13.18
2022-10-17T19:03:30.959Z,13.31
2022-10-17T19:06:01.292Z,13.02
2022-10-17T19:08:28.304Z,13.20
2022-10-17T19:10:55.005Z,13.17
2022-10-17T19:13:21.910Z,13.31
2022-10-17T19:15:48.563Z,12.70
2022-10-17T19:18:15.166Z,13.04
2022-10-17T19:20:41.823Z,12.97
2022-10-17T19:23:08.486Z,13.16
2022-10-17T19:25:38.005Z,13.17
2022-10-17T19:28:04.843Z,12.68
2022-10-17T19:30:31.447Z,12.28
2022-10-17T19:32:58.080Z,12.05
2022-10-17T19:35:25.141Z,12.47
2022-10-17T19:37:52.162Z,12.49
2022-10-17T19:40:18.835Z,12.15
2022-10-17T19:42:45.490Z,12.09
2022-10-17T19:45:12.158Z,12.26
2022-10-17T19:47:39.784Z,12.49
2022-10-17T19:50:07.017Z,12.47
2022-10-17T19:52:33.786Z,12.58
2022-10-17T19:55:00.592Z,12.77
2022-10-17T19:57:27.327Z,12.18
2022-10-17T19:59:57.460Z,12.37
2022-10-17T20:02:24.155Z,12.64
2022-10-17T20:05:06.310Z,12.48
2022-10-17T20:07:37.358Z,12.11
2022-10-17T20:10:04.244Z,12.22
2022-10-17T20:12:31.066Z,11.81
2022-10-17T20:14:58.049Z,12.08
2022-10-17T20:17:24.875Z,12.10
2022-10-17T20:19:51.797Z,11.77
2022-10-17T20:22:18.386Z,12.01
2022-10-17T20:24:45.236Z,11.78
2022-10-17T20:27:11.842Z,11.94
2022-10-17T20:29:38.651Z,11.65
2022-10-17T20:32:05.440Z,11.58
2022-10-17T20:34:35.529Z,11.47
2022-10-17T20:37:02.387Z,11.33
2022-10-17T20:39:29.695Z,11.49
2022-10-17T20:41:56.580Z,11.46
2022-10-17T20:44:23.238Z,11.51
2022-10-17T20:47:01.300Z,11.71
2022-10-17T20:49:31.763Z,11.45
2022-10-17T20:51:59.380Z,11.34
2022-10-17T20:54:27.803Z,11.05
2022-10-17T20:56:55.435Z,11.11
2022-10-17T20:59:21.992Z,11.05
2022-10-17T21:01:48.729Z,11.37
2022-10-17T21:04:44.169Z,11.55
2022-10-17T21:07:02.235Z,11.30
2022-10-17T21:09:28.969Z,11.13
2022-10-17T21:11:56.832Z,11.32
2022-10-17T21:14:25.052Z,11.50
2022-10-17T21:16:52.346Z,10.86
2022-10-17T21:19:19.472Z,11.21
2022-10-17T21:21:46.780Z,11.40
2022-10-17T21:24:17.333Z,11.33
2022-10-17T21:26:45.691Z,11.45
2022-10-17T21:29:13.311Z,11.44
2022-10-17T21:31:41.831Z,11.39
2022-10-17T21:34:15.268Z,11.39
2022-10-17T21:36:42.114Z,11.29
2022-10-17T21:39:11.395Z,11.20
2022-10-17T21:41:38.287Z,11.00
2022-10-17T21:44:11.605Z,11.14
2022-10-17T21:46:38.449Z,11.14
2022-10-17T21:49:05.082Z,10.89
2022-10-17T21:51:31.776Z,10.86
2022-10-17T21:53:59.284Z,11.12
2022-10-17T21:56:28.639Z,10.71
2022-10-17T21:58:56.565Z,10.69
2022-10-17T22:01:27.698Z,10.74
2022-10-17T22:03:56.948Z,10.81
2022-10-17T22:06:39.287Z,10.74
2022-10-17T22:09:11.915Z,10.75
2022-10-17T22:11:38.812Z,10.51
2022-10-17T22:14:10.190Z,10.56
2022-10-17T22:16:38.394Z,10.65
2022-10-17T22:19:06.844Z,10.67
2022-10-17T22:21:35.596Z,10.45
2022-10-17T22:24:07.708Z,10.14
2022-10-17T22:26:36.707Z,10.24
2022-10-17T22:29:05.073Z,10.52
2022-10-17T22:31:31.781Z,10.15
2022-10-17T22:33:58.415Z,10.42
2022-10-17T22:36:25.266Z,10.10
2022-10-17T22:38:51.946Z,10.13
2022-10-17T22:41:18.739Z,10.34
2022-10-17T22:43:45.425Z,10.41
2022-10-17T22:46:14.192Z,10.32
2022-10-17T22:48:41.191Z,10.36
2022-10-17T22:51:08.536Z,10.40
2022-10-17T22:53:37.344Z,9.60
2022-10-17T22:56:07.823Z,10.09
2022-10-17T22:58:35.896Z,10.30
2022-10-17T23:01:03.698Z,10.36
2022-10-17T23:03:31.711Z,10.14
2022-10-17T23:05:58.810Z,10.29
2022-10-17T23:08:27.125Z,10.08
2022-10-17T23:10:54.496Z,9.68
2022-10-17T23:13:22.019Z,10.12
2022-10-17T23:15:53.612Z,10.21
2022-10-17T23:18:21.687Z,10.11
2022-10-17T23:20:48.856Z,10.23
2022-10-17T23:23:16.265Z,10.28
2022-10-17T23:25:43.023Z,10.17
2022-10-17T23:28:10.472Z,9.87
2022-10-17T23:30:39.007Z,9.88
2022-10-17T23:33:06.866Z,9.62
2022-10-17T23:35:34.504Z,9.64
2022-10-17T23:38:01.279Z,9.86
2022-10-17T23:40:28.185Z,9.90
2022-10-17T23:42:55.057Z,9.77
2022-10-17T23:45:22.067Z,9.78
2022-10-17T23:47:48.917Z,9.58
2022-10-17T23:50:16.502Z,9.60
2022-10-17T23:52:43.849Z,9.87
2022-10-17T23:55:11.066Z,9.90
2022-10-17T23:57:37.895Z,9.41
